Time;durP1;ratioP1;P1;durP2;ratioP2;P2;SDS_P1;SDS_P2;PMS_P1;PMS_P2;Temp;Humidity;BMP_temperature;BMP_pressure;BME280_temperature;BME280_humidity;BME280_pressure;Samples;Min_cycle;Max_cycle;Signal;HPM_P1;HPM_P2
2022/04/25 00:01:59;;;;;;;17.83;6.07;;;8.80;99.90;;;;;;5035249;28;20486;-75
2022/04/25 00:04:25;;;;;;;17.42;5.30;;;8.70;99.90;;;;;;5035396;28;20052;-76
2022/04/25 00:06:51;;;;;;;24.20;6.30;;;8.70;99.90;;;;;;5036937;28;20108;-76
2022/04/25 00:09:16;;;;;;;19.98;5.90;;;8.80;99.90;;;;;;5035381;28;20060;-76
2022/04/25 00:11:42;;;;;;;21.45;6.18;;;8.70;99.90;;;;;;5035606;28;20462;-76
2022/04/25 00:14:07;;;;;;;24.10;6.82;;;8.70;99.90;;;;;;5036121;28;20033;-76
2022/04/25 00:16:34;;;;;;;14.20;5.10;;;8.70;99.90;;;;;;5033684;28;20014;-75
2022/04/25 00:19:00;;;;;;;18.70;5.68;;;8.70;99.90;;;;;;5036252;28;20100;-76
2022/04/25 00:21:26;;;;;;;28.13;5.60;;;8.70;99.90;;;;;;5044932;28;20033;-76
2022/04/25 00:23:51;;;;;;;25.60;5.68;;;8.70;99.90;;;;;;5052468;28;20025;-75
2022/04/25 00:26:17;;;;;;;23.52;5.97;;;8.70;99.90;;;;;;5051390;28;20056;-75
2022/04/25 00:28:43;;;;;;;20.70;5.65;;;8.70;99.90;;;;;;5052098;28;20025;-75
2022/04/25 00:31:08;;;;;;;17.23;5.82;;;8.70;99.90;;;;;;5045522;28;20034;-75
2022/04/25 00:33:34;;;;;;;22.25;5.88;;;8.70;99.90;;;;;;5049206;28;20033;-73
2022/04/25 00:36:00;;;;;;;22.35;5.95;;;8.70;99.90;;;;;;5055230;28;20025;-76
2022/04/25 00:38:25;;;;;;;18.45;6.28;;;8.70;99.90;;;;;;5052121;28;20021;-75
2022/04/25 00:40:51;;;;;;;23.20;6.45;;;8.70;99.90;;;;;;5045848;28;20022;-76
2022/04/25 00:43:16;;;;;;;21.00;5.95;;;8.70;99.90;;;;;;5045353;28;20021;-75
2022/04/25 00:45:42;;;;;;;23.02;7.20;;;8.60;99.90;;;;;;5041773;28;20041;-77
2022/04/25 00:48:08;;;;;;;22.25;5.38;;;8.60;99.90;;;;;;5034926;28;20103;-78
2022/04/25 00:50:33;;;;;;;19.50;5.80;;;8.50;99.90;;;;;;5036442;28;20122;-76
2022/04/25 00:52:59;;;;;;;14.70;5.05;;;8.50;99.90;;;;;;5037472;28;20026;-76
2022/04/25 00:55:25;;;;;;;17.30;5.43;;;8.60;99.90;;;;;;5035187;28;20501;-76
2022/04/25 00:57:52;;;;;;;16.45;5.22;;;8.60;99.90;;;;;;5043545;28;20117;-77
2022/04/25 01:00:18;;;;;;;20.45;6.18;;;8.60;99.90;;;;;;5037382;28;20030;-77
2022/04/25 01:02:44;;;;;;;19.42;6.00;;;8.60;99.90;;;;;;5040441;28;20029;-76
2022/04/25 01:05:09;;;;;;;18.35;5.93;;;8.50;99.90;;;;;;5044603;28;20113;-77
2022/04/25 01:07:37;;;;;;;17.05;5.10;;;8.60;99.90;;;;;;5036098;28;20391;-77
2022/04/25 01:10:04;;;;;;;18.58;5.35;;;8.60;99.90;;;;;;5034615;28;20037;-77
2022/04/25 01:12:30;;;;;;;19.65;5.45;;;8.60;99.90;;;;;;5033711;28;20032;-77
2022/04/25 01:15:00;;;;;;;18.88;5.07;;;8.60;99.90;;;;;;5035596;28;20017;-76
2022/04/25 01:17:26;;;;;;;16.10;5.60;;;8.60;99.90;;;;;;5033566;28;20046;-76
2022/04/25 01:19:52;;;;;;;18.08;5.35;;;8.60;99.90;;;;;;5034804;28;20046;-77
2022/04/25 01:22:21;;;;;;;15.50;5.13;;;8.60;99.90;;;;;;5037262;28;20026;-76
2022/04/25 01:27:31;;;;;;;;;;;8.60;99.90;;;;;;5042406;28;20080;-76
2022/04/25 01:29:57;;;;;;;21.15;5.40;;;8.60;99.90;;;;;;5045708;28;20007;-75
2022/04/25 01:32:24;;;;;;;27.50;5.20;;;8.60;99.90;;;;;;5062783;22;20275;-75
2022/04/25 01:34:50;;;;;;;18.38;4.82;;;8.50;99.90;;;;;;5039935;28;20025;-75
2022/04/25 01:37:20;;;;;;;20.42;5.57;;;8.50;99.90;;;;;;5040923;28;20081;-74
2022/04/25 01:39:50;;;;;;;22.23;5.00;;;8.50;99.90;;;;;;5040754;28;20081;-76
2022/04/25 01:42:17;;;;;;;25.73;5.20;;;8.50;99.90;;;;;;5039421;28;20086;-75
2022/04/25 01:44:43;;;;;;;18.40;4.15;;;8.40;99.90;;;;;;5040177;28;20026;-76
2022/04/25 01:47:09;;;;;;;16.25;5.05;;;8.50;99.90;;;;;;5032140;28;20547;-78
2022/04/25 01:49:35;;;;;;;14.65;4.38;;;8.50;99.90;;;;;;5030275;28;20029;-74
2022/04/25 01:52:04;;;;;;;13.20;4.53;;;;;;;;;;5032403;28;20030;-74
2022/04/25 01:54:32;;;;;;;22.02;4.90;;;8.40;99.90;;;;;;5031949;28;20028;-76
2022/04/25 01:56:58;;;;;;;15.80;4.53;;;8.40;99.90;;;;;;5031806;28;20048;-78
2022/04/25 01:59:24;;;;;;;22.27;5.40;;;8.40;99.90;;;;;;5032686;28;20056;-75
2022/04/25 02:01:51;;;;;;;18.55;4.43;;;8.40;99.90;;;;;;5032927;28;20025;-75
2022/04/25 02:04:16;;;;;;;20.85;4.93;;;8.30;99.90;;;;;;5032313;28;20032;-76
2022/04/25 02:06:42;;;;;;;17.23;4.63;;;8.30;99.90;;;;;;5030374;28;20112;-75
2022/04/25 02:09:08;;;;;;;17.00;4.30;;;8.30;99.90;;;;;;5032239;28;20079;-75
2022/04/25 02:11:34;;;;;;;14.48;4.75;;;8.30;99.90;;;;;;5034139;28;20033;-74
2022/04/25 02:14:00;;;;;;;16.00;4.40;;;8.20;99.90;;;;;;5032392;28;20026;-76
2022/04/25 02:16:26;;;;;;;15.40;4.40;;;8.30;99.90;;;;;;5035576;28;20026;-75
2022/04/25 02:18:53;;;;;;;17.60;4.47;;;8.30;99.90;;;;;;5036203;28;20026;-77
2022/04/25 02:21:19;;;;;;;20.10;4.32;;;8.30;99.90;;;;;;5037017;28;20037;-75
2022/04/25 02:23:45;;;;;;;12.90;4.78;;;8.30;99.90;;;;;;5033191;28;20026;-75
2022/04/25 02:26:10;;;;;;;16.52;3.70;;;8.30;99.90;;;;;;5032450;28;20026;-74
2022/04/25 02:28:37;;;;;;;19.13;4.78;;;8.30;99.90;;;;;;5032646;28;20040;-76
2022/04/25 02:31:05;;;;;;;15.63;4.28;;;8.30;99.90;;;;;;5033357;28;20029;-76
2022/04/25 02:33:31;;;;;;;18.20;4.47;;;8.40;99.90;;;;;;5033418;28;20108;-76
2022/04/25 02:35:58;;;;;;;19.52;4.45;;;8.40;99.90;;;;;;5033050;28;20033;-76
2022/04/25 02:38:23;;;;;;;20.67;4.63;;;8.40;99.90;;;;;;5033367;28;20025;-74
2022/04/25 02:41:10;;;;;;;15.55;4.85;;;8.40;99.90;;;;;;5036163;28;20108;-75
2022/04/25 02:43:40;;;;;;;15.35;4.30;;;8.40;99.90;;;;;;5032007;28;20037;-76
2022/04/25 02:46:08;;;;;;;16.33;4.32;;;8.40;99.90;;;;;;5035728;28;20034;-75
2022/04/25 02:48:35;;;;;;;15.35;4.30;;;8.40;99.90;;;;;;5035730;28;20029;-75
2022/04/25 02:51:05;;;;;;;16.88;4.32;;;8.40;99.90;;;;;;5035813;28;20049;-75
2022/04/25 02:53:31;;;;;;;18.02;4.60;;;8.30;99.90;;;;;;5031602;28;20076;-76
2022/04/25 02:55:57;;;;;;;19.42;4.45;;;8.40;99.90;;;;;;5031111;28;20018;-76
2022/04/25 02:58:24;;;;;;;19.92;5.15;;;8.40;99.90;;;;;;5033490;28;20044;-75
2022/04/25 03:00:51;;;;;;;13.02;4.40;;;8.40;99.90;;;;;;5040464;28;20114;-75
2022/04/25 03:03:19;;;;;;;16.25;5.03;;;8.40;99.90;;;;;;5040383;28;20021;-75
2022/04/25 03:05:46;;;;;;;18.48;4.60;;;8.40;99.90;;;;;;5041124;28;20022;-75
2022/04/25 03:08:18;;;;;;;18.65;4.28;;;8.30;99.90;;;;;;5031831;28;20116;-75
2022/04/25 03:10:46;;;;;;;10.68;4.25;;;8.40;99.90;;;;;;5032140;28;20088;-76
2022/04/25 03:13:13;;;;;;;16.33;4.10;;;8.40;99.90;;;;;;5030696;28;20021;-76
2022/04/25 03:15:39;;;;;;;15.30;4.68;;;8.30;99.90;;;;;;5031523;28;20049;-76
2022/04/25 03:18:10;;;;;;;20.30;4.80;;;8.30;99.90;;;;;;5031778;28;20060;-76
2022/04/25 03:20:36;;;;;;;24.88;5.25;;;8.30;99.90;;;;;;5031748;28;20524;-75
2022/04/25 03:23:02;;;;;;;15.18;4.93;;;8.20;99.90;;;;;;5031757;28;20025;-76
2022/04/25 03:25:28;;;;;;;18.13;5.50;;;8.20;99.90;;;;;;5031724;28;20595;-75
2022/04/25 03:27:54;;;;;;;16.15;4.40;;;8.30;99.90;;;;;;5032219;28;20067;-76
2022/04/25 03:30:20;;;;;;;20.55;5.20;;;8.20;99.90;;;;;;5030646;28;20022;-76
2022/04/25 03:32:47;;;;;;;11.80;4.07;;;8.20;99.90;;;;;;5033389;28;20502;-75
2022/04/25 03:35:14;;;;;;;12.93;4.15;;;8.10;99.90;;;;;;5035226;28;20490;-75
2022/04/25 03:37:39;;;;;;;15.88;4.32;;;8.10;99.90;;;;;;5035854;28;20482;-75
2022/04/25 03:40:06;;;;;;;16.30;3.90;;;8.10;99.90;;;;;;5036029;28;20037;-76
2022/04/25 03:42:31;;;;;;;12.73;3.63;;;8.10;99.90;;;;;;5035267;28;20025;-74
2022/04/25 03:44:57;;;;;;;11.80;4.15;;;8.10;99.90;;;;;;5038686;28;20046;-76
2022/04/25 03:47:23;;;;;;;12.75;3.90;;;8.00;99.90;;;;;;5036035;28;20029;-75
2022/04/25 03:49:49;;;;;;;13.68;3.83;;;8.00;99.90;;;;;;5035137;28;20118;-76
2022/04/25 03:52:14;;;;;;;13.52;4.20;;;8.00;99.90;;;;;;5035646;28;20030;-74
2022/04/25 03:57:24;;;;;;;12.75;4.25;;;7.90;99.90;;;;;;5035504;28;20039;-76
2022/04/25 03:59:49;;;;;;;16.33;4.60;;;7.90;99.90;;;;;;5035159;28;20101;-76
2022/04/25 04:02:15;;;;;;;14.05;4.57;;;7.90;99.90;;;;;;5035861;28;20156;-75
2022/04/25 04:04:40;;;;;;;14.80;3.97;;;7.90;99.90;;;;;;5036177;28;20080;-76
2022/04/25 04:07:06;;;;;;;14.48;4.47;;;7.90;99.90;;;;;;5040048;28;20048;-76
2022/04/25 04:09:50;;;;;;;19.08;4.03;;;7.90;99.90;;;;;;5047245;28;20047;-75
2022/04/25 04:12:18;;;;;;;15.33;4.27;;;7.90;99.90;;;;;;5050181;28;20030;-75
2022/04/25 04:14:45;;;;;;;16.77;4.05;;;7.90;99.90;;;;;;5044484;28;20021;-76
2022/04/25 04:17:11;;;;;;;15.68;4.75;;;7.80;99.90;;;;;;5047781;28;20741;-76
2022/04/25 04:19:37;;;;;;;17.33;4.47;;;7.80;99.90;;;;;;5044206;28;20026;-76
2022/04/25 04:22:04;;;;;;;16.05;4.13;;;7.70;99.90;;;;;;5040080;28;20056;-76
2022/04/25 04:24:31;;;;;;;19.10;4.47;;;7.70;99.90;;;;;;5038293;28;20037;-76
2022/04/25 04:27:01;;;;;;;14.32;4.45;;;7.70;99.90;;;;;;5036470;28;20037;-77
2022/04/25 04:29:29;;;;;;;16.60;4.65;;;7.70;99.90;;;;;;5035686;28;20027;-76
2022/04/25 04:31:56;;;;;;;18.52;4.47;;;7.70;99.90;;;;;;5042289;28;20034;-78
2022/04/25 04:34:22;;;;;;;20.38;4.82;;;7.70;99.90;;;;;;5048198;28;20117;-76
2022/04/25 04:36:50;;;;;;;14.27;4.07;;;7.70;99.90;;;;;;5039975;28;20033;-77
2022/04/25 04:39:16;;;;;;;17.10;4.72;;;7.60;99.90;;;;;;5034063;28;20097;-75
2022/04/25 04:41:42;;;;;;;17.42;4.78;;;7.60;99.90;;;;;;5035165;28;20401;-76
2022/04/25 04:44:07;;;;;;;20.98;4.50;;;7.60;99.90;;;;;;5034192;28;20021;-74
2022/04/25 04:46:33;;;;;;;15.85;4.22;;;7.60;99.90;;;;;;5036506;28;20081;-75
2022/04/25 04:48:58;;;;;;;20.83;4.65;;;7.50;99.90;;;;;;5039191;28;20069;-75
2022/04/25 04:51:24;;;;;;;13.20;4.78;;;7.60;99.90;;;;;;5043522;28;20040;-74
2022/04/25 04:53:49;;;;;;;14.30;4.15;;;7.60;99.90;;;;;;5036506;28;20097;-75
2022/04/25 04:56:15;;;;;;;13.07;4.10;;;7.60;99.90;;;;;;5041759;28;20025;-75
2022/04/25 04:58:40;;;;;;;17.83;4.97;;;7.50;99.90;;;;;;5044751;28;20013;-74
2022/04/25 05:01:07;;;;;;;13.52;4.88;;;7.50;99.90;;;;;;5040450;28;20038;-75
2022/04/25 05:03:34;;;;;;;19.17;4.15;;;7.50;99.90;;;;;;5038822;28;20029;-75
2022/04/25 05:05:59;;;;;;;19.85;4.80;;;7.60;99.90;;;;;;5038217;28;20021;-76
2022/04/25 05:08:25;;;;;;;15.00;4.78;;;7.50;99.90;;;;;;5037106;28;20128;-75
2022/04/25 05:10:51;;;;;;;16.58;4.30;;;7.60;99.90;;;;;;5037915;28;20556;-76
2022/04/25 05:13:17;;;;;;;14.73;4.28;;;7.60;99.90;;;;;;5037073;28;20048;-75
2022/04/25 05:15:42;;;;;;;15.30;4.43;;;7.60;99.90;;;;;;5037707;28;20021;-76
2022/04/25 05:18:08;;;;;;;18.48;4.85;;;7.60;99.90;;;;;;5037289;28;20037;-76
2022/04/25 05:20:34;;;;;;;26.15;6.15;;;7.70;99.90;;;;;;5037562;28;20053;-76
2022/04/25 05:23:02;;;;;;;19.23;4.85;;;7.70;99.90;;;;;;5035948;28;20056;-76
2022/04/25 05:25:28;;;;;;;17.70;4.45;;;7.70;99.90;;;;;;5036977;28;20021;-75
2022/04/25 05:27:55;;;;;;;19.85;4.70;;;7.80;99.90;;;;;;5039016;28;20064;-74
2022/04/25 05:30:23;;;;;;;15.73;4.68;;;7.80;99.90;;;;;;5038317;28;20026;-77
2022/04/25 05:32:51;;;;;;;20.98;5.45;;;7.90;99.90;;;;;;5043002;28;20557;-76
2022/04/25 05:35:20;;;;;;;23.00;5.07;;;7.90;99.90;;;;;;5041711;28;20025;-76
2022/04/25 05:37:46;;;;;;;19.85;6.03;;;7.90;99.90;;;;;;5038597;28;20049;-76
2022/04/25 05:40:16;;;;;;;14.02;4.93;;;7.90;99.90;;;;;;5035366;28;20025;-77
2022/04/25 05:42:43;;;;;;;15.43;4.82;;;8.00;99.90;;;;;;5035940;28;20037;-75
2022/04/25 05:45:10;;;;;;;16.63;4.95;;;8.00;99.90;;;;;;5041389;28;20132;-78
2022/04/25 05:47:36;;;;;;;18.60;5.13;;;8.00;99.90;;;;;;5033618;28;20426;-78
2022/04/25 05:52:47;;;;;;;14.55;4.50;;;8.20;99.90;;;;;;5036998;28;20037;-77
2022/04/25 05:55:13;;;;;;;13.65;4.18;;;8.30;99.90;;;;;;5032148;28;20021;-76
2022/04/25 05:57:40;;;;;;;14.77;4.60;;;8.30;99.90;;;;;;5035302;28;20506;-77
2022/04/25 06:00:09;;;;;;;21.63;4.35;;;8.30;99.90;;;;;;5034175;28;20474;-76
2022/04/25 06:02:39;;;;;;;12.75;3.85;;;8.40;99.90;;;;;;5033640;28;20032;-76
2022/04/25 06:05:06;;;;;;;16.25;4.30;;;8.40;99.90;;;;;;5037392;28;20491;-80
2022/04/25 06:07:33;;;;;;;11.18;4.18;;;8.50;99.90;;;;;;5035144;28;20022;-76
2022/04/25 06:09:58;;;;;;;13.68;3.97;;;8.50;99.90;;;;;;5037294;28;20445;-75
2022/04/25 06:12:24;;;;;;;11.02;4.05;;;8.60;99.90;;;;;;5036607;28;20079;-76
2022/04/25 06:14:53;;;;;;;18.20;4.30;;;8.70;99.90;;;;;;5036021;28;20021;-75
2022/04/25 06:17:19;;;;;;;15.63;3.50;;;8.70;99.90;;;;;;5035884;28;20499;-75
2022/04/25 06:19:44;;;;;;;18.55;4.43;;;8.70;99.90;;;;;;5035899;28;20044;-77
2022/04/25 06:22:10;;;;;;;12.00;4.15;;;8.70;99.90;;;;;;5035848;28;20041;-77
2022/04/25 06:24:36;;;;;;;11.73;3.63;;;8.80;99.90;;;;;;5034960;28;20037;-75
2022/04/25 06:27:03;;;;;;;16.23;4.43;;;8.80;99.90;;;;;;5033065;28;20033;-75
2022/04/25 06:29:29;;;;;;;15.38;3.70;;;8.80;99.90;;;;;;5032411;28;20029;-76
2022/04/25 06:31:55;;;;;;;12.00;3.95;;;8.80;99.90;;;;;;5034397;28;20499;-75
2022/04/25 06:34:21;;;;;;;12.02;4.00;;;8.80;99.90;;;;;;5033962;28;20111;-76
2022/04/25 06:36:50;;;;;;;15.70;4.15;;;8.90;99.90;;;;;;5033848;28;20021;-77
2022/04/25 06:39:16;;;;;;;15.30;4.20;;;8.90;99.90;;;;;;5033875;28;20022;-77
2022/04/25 06:41:41;;;;;;;13.57;3.63;;;8.90;99.90;;;;;;5036920;28;20065;-76
2022/04/25 06:44:07;;;;;;;16.42;4.10;;;9.00;99.90;;;;;;5038119;28;20030;-75
2022/04/25 06:46:32;;;;;;;13.13;4.20;;;9.10;99.90;;;;;;5035459;28;20086;-78
2022/04/25 06:51:42;;;;;;;15.10;5.00;;;9.20;99.90;;;;;;5036085;28;20036;-76
2022/04/25 06:54:08;;;;;;;15.60;3.88;;;9.30;99.90;;;;;;5034910;28;20026;-76
2022/04/25 06:56:35;;;;;;;9.50;3.90;;;9.30;99.90;;;;;;5035000;28;20116;-76
2022/04/25 06:59:00;;;;;;;20.65;4.10;;;9.50;99.90;;;;;;5033963;28;20028;-75
2022/04/25 07:01:26;;;;;;;14.80;4.25;;;9.50;99.90;;;;;;5033437;28;20029;-77
2022/04/25 07:03:51;;;;;;;14.32;5.13;;;9.50;99.90;;;;;;5034511;28;20026;-76
2022/04/25 07:06:17;;;;;;;11.60;4.10;;;9.60;99.90;;;;;;5032562;28;20033;-78
2022/04/25 07:08:42;;;;;;;13.95;4.53;;;9.60;99.90;;;;;;5037920;28;20029;-76
2022/04/25 07:11:08;;;;;;;12.77;4.07;;;9.70;99.90;;;;;;5039531;28;20034;-77
2022/04/25 07:13:34;;;;;;;13.18;4.00;;;9.90;99.90;;;;;;5045414;28;20025;-75
2022/04/25 07:15:59;;;;;;;9.85;4.00;;;10.10;99.90;;;;;;5043643;28;20036;-76
2022/04/25 07:18:25;;;;;;;14.57;5.00;;;10.10;99.90;;;;;;5048156;28;20098;-76
2022/04/25 07:20:50;;;;;;;12.85;4.63;;;10.10;99.90;;;;;;5044819;28;20026;-76
2022/04/25 07:28:48;;;;;;;16.33;4.90;;;10.30;99.90;;;;;;5039113;28;20509;-76
2022/04/25 07:28:58;;;;;;;12.13;3.67;;;10.30;99.90;;;;;;5040105;28;20494;-76
2022/04/25 07:31:23;;;;;;;9.30;4.13;;;10.50;99.90;;;;;;5040363;28;20021;-76
2022/04/25 07:33:49;;;;;;;17.08;4.38;;;10.50;99.90;;;;;;5058544;23;20041;-77
2022/04/25 07:36:17;;;;;;;12.25;3.72;;;10.60;99.90;;;;;;5039911;28;20021;-77
2022/04/25 07:38:43;;;;;;;11.45;4.05;;;10.80;99.90;;;;;;5040591;28;20021;-77
2022/04/25 07:41:09;;;;;;;16.85;4.22;;;10.90;99.90;;;;;;5037463;28;20537;-76
2022/04/25 07:43:35;;;;;;;9.00;3.92;;;10.90;99.90;;;;;;5036269;28;20029;-77
2022/04/25 07:46:01;;;;;;;15.27;3.55;;;11.00;99.90;;;;;;5035617;28;20121;-76
2022/04/25 07:48:27;;;;;;;14.13;4.78;;;11.20;99.90;;;;;;5036787;28;20116;-77
2022/04/25 07:50:53;;;;;;;13.80;4.35;;;11.30;99.90;;;;;;5039818;28;20029;-77
2022/04/25 07:53:19;;;;;;;8.25;3.88;;;11.40;99.90;;;;;;5037721;28;20028;-76
2022/04/25 07:55:45;;;;;;;10.20;3.88;;;11.40;99.90;;;;;;5037548;28;20502;-77
2022/04/25 07:58:10;;;;;;;11.85;3.92;;;11.50;99.90;;;;;;5044521;28;20044;-77
2022/04/25 08:00:40;;;;;;;12.57;3.92;;;11.60;99.90;;;;;;5045878;28;20104;-78
2022/04/25 08:03:06;;;;;;;14.55;4.15;;;11.60;99.90;;;;;;5038436;28;20021;-77
2022/04/25 08:05:32;;;;;;;12.88;4.32;;;11.80;99.90;;;;;;5040740;28;20022;-77
2022/04/25 08:07:57;;;;;;;12.38;4.15;;;11.70;99.90;;;;;;5044099;28;20052;-77
2022/04/25 08:10:23;;;;;;;13.07;4.38;;;11.90;99.90;;;;;;5038712;28;20026;-77
2022/04/25 08:18:17;;;;;;;16.17;4.82;;;12.00;99.90;;;;;;5037175;28;20035;-77
2022/04/25 08:20:43;;;;;;;14.38;4.72;;;12.20;99.90;;;;;;5037979;28;20085;-77
2022/04/25 08:23:11;;;;;;;14.20;5.22;;;12.10;99.90;;;;;;5037411;28;20029;-76
2022/04/25 08:25:38;;;;;;;12.68;4.50;;;12.20;99.90;;;;;;5036772;28;20024;-76
2022/04/25 08:28:07;;;;;;;16.15;4.70;;;12.20;99.90;;;;;;5037218;28;20568;-76
2022/04/25 08:30:34;;;;;;;13.68;4.40;;;12.20;99.90;;;;;;5037402;28;20106;-76
2022/04/25 08:33:01;;;;;;;12.77;4.57;;;12.30;99.90;;;;;;5036751;28;20060;-76
2022/04/25 08:35:27;;;;;;;11.77;4.40;;;12.50;99.90;;;;;;5036047;28;20474;-76
2022/04/25 08:37:54;;;;;;;10.73;4.15;;;12.60;99.90;;;;;;5036895;28;20458;-76
2022/04/25 08:40:21;;;;;;;14.73;4.57;;;12.70;99.90;;;;;;5036280;28;20025;-75
2022/04/25 08:42:47;;;;;;;12.25;4.30;;;12.70;99.90;;;;;;5037258;28;20035;-75
2022/04/25 08:45:13;;;;;;;8.57;3.80;;;12.80;99.90;;;;;;5035291;28;20120;-75
2022/04/25 08:47:54;;;;;;;10.52;4.05;;;12.90;99.90;;;;;;5034137;28;20386;-77
2022/04/25 08:50:20;;;;;;;14.32;4.55;;;12.90;99.90;;;;;;5037347;28;20017;-77
2022/04/25 08:52:46;;;;;;;10.65;4.93;;;13.00;99.90;;;;;;5035642;28;20051;-77
2022/04/25 08:55:14;;;;;;;15.77;4.68;;;13.00;99.90;;;;;;5037253;28;20030;-77
2022/04/25 08:57:42;;;;;;;8.43;4.03;;;13.10;99.90;;;;;;5036740;28;20025;-76
2022/04/25 09:00:08;;;;;;;14.20;4.15;;;13.10;99.90;;;;;;5037563;28;20474;-77
2022/04/25 09:02:39;;;;;;;11.38;4.03;;;13.30;99.90;;;;;;5037620;28;20037;-77
2022/04/25 09:05:06;;;;;;;11.65;4.38;;;13.40;99.90;;;;;;5036912;28;20029;-77
2022/04/25 09:07:33;;;;;;;13.13;4.20;;;13.40;99.90;;;;;;5038621;28;20026;-78
2022/04/25 09:09:58;;;;;;;14.82;4.80;;;13.60;99.90;;;;;;5037007;28;20083;-77
2022/04/25 09:12:24;;;;;;;12.60;4.38;;;13.70;99.90;;;;;;5040137;28;20033;-77
2022/04/25 09:14:50;;;;;;;17.33;4.47;;;13.80;99.90;;;;;;5041042;28;20071;-76
2022/04/25 09:17:15;;;;;;;8.90;4.18;;;13.90;99.90;;;;;;5042901;28;20021;-78
2022/04/25 09:19:41;;;;;;;10.48;3.85;;;13.90;99.90;;;;;;5054099;28;20034;-76
2022/04/25 09:22:08;;;;;;;7.00;3.58;;;13.90;99.90;;;;;;5049372;28;20371;-76
2022/04/25 09:24:41;;;;;;;11.10;3.63;;;13.90;99.90;;;;;;5053660;28;20030;-77
2022/04/25 09:27:07;;;;;;;11.85;4.05;;;13.90;99.90;;;;;;5039090;28;20030;-76
2022/04/25 09:29:32;;;;;;;13.88;3.80;;;14.00;99.90;;;;;;5037341;28;20033;-77
2022/04/25 09:31:59;;;;;;;11.48;4.50;;;14.10;99.90;;;;;;5035975;28;20037;-76
2022/04/25 09:37:09;;;;;;;9.50;3.90;;;14.30;99.90;;;;;;5043875;28;20125;-77
2022/04/25 09:39:35;;;;;;;8.50;3.67;;;14.10;99.90;;;;;;5048358;28;20033;-76
2022/04/25 09:42:01;;;;;;;7.32;3.30;;;14.30;99.90;;;;;;5044344;28;20052;-77
2022/04/25 09:44:54;;;;;;;9.82;3.90;;;14.50;99.90;;;;;;5046025;28;20044;-78
2022/04/25 09:47:31;;;;;;;9.73;3.80;;;14.50;99.90;;;;;;5047834;28;20021;-76
2022/04/25 09:50:09;;;;;;;8.40;3.85;;;14.60;99.90;;;;;;5049624;28;20048;-74
2022/04/25 09:52:49;;;;;;;8.20;3.75;;;14.80;99.90;;;;;;5055158;28;20159;-75
2022/04/25 09:55:16;;;;;;;8.05;3.70;;;14.90;99.90;;;;;;5039679;28;20035;-76
2022/04/25 09:57:42;;;;;;;5.63;3.70;;;15.00;99.90;;;;;;5038341;28;20044;-75
2022/04/25 10:00:09;;;;;;;13.32;3.78;;;15.00;99.90;;;;;;5040127;28;20025;-76
2022/04/25 10:02:39;;;;;;;10.20;3.95;;;15.10;99.90;;;;;;5042137;28;20497;-79
2022/04/25 10:05:15;;;;;;;11.05;4.38;;;15.20;99.90;;;;;;5042074;28;20060;-77
2022/04/25 10:07:42;;;;;;;9.88;3.80;;;15.30;99.90;;;;;;5038037;28;20029;-76
2022/04/25 10:10:12;;;;;;;7.68;3.47;;;15.30;99.90;;;;;;5037213;28;20022;-78
2022/04/25 10:12:38;;;;;;;6.47;3.25;;;15.30;99.90;;;;;;5034965;28;20025;-77
2022/04/25 10:15:06;;;;;;;8.25;4.05;;;15.30;99.90;;;;;;5034670;28;20573;-76
2022/04/25 10:17:32;;;;;;;8.10;4.10;;;15.40;99.90;;;;;;5032678;28;20033;-76
2022/04/25 10:20:01;;;;;;;8.70;3.95;;;15.50;99.90;;;;;;5033676;28;20021;-76
2022/04/25 10:22:26;;;;;;;6.55;3.33;;;15.60;99.90;;;;;;5031886;28;20048;-76
2022/04/25 10:24:52;;;;;;;7.45;3.13;;;15.60;99.90;;;;;;5032482;28;20727;-76
2022/04/25 10:27:24;;;;;;;8.93;3.35;;;15.70;99.90;;;;;;5034999;28;20368;-76
2022/04/25 10:29:53;;;;;;;6.32;2.63;;;15.80;99.90;;;;;;5033123;28;20529;-76
2022/04/25 10:32:23;;;;;;;10.38;4.00;;;15.90;99.90;;;;;;5035283;28;20482;-76
2022/04/25 10:34:56;;;;;;;7.68;3.17;;;16.00;99.90;;;;;;5036759;28;20098;-77
2022/04/25 10:37:36;;;;;;;5.47;3.25;;;16.10;99.90;;;;;;5040207;28;20037;-77
2022/04/25 10:40:07;;;;;;;10.55;4.22;;;16.20;99.90;;;;;;5038678;28;20514;-76
2022/04/25 10:45:53;;;;;;;6.57;3.22;;;16.30;99.90;;;;;;5037138;28;20096;-76
2022/04/25 10:48:19;;;;;;;8.57;4.50;;;16.20;99.90;;;;;;5035686;28;20120;-76
2022/04/25 10:51:10;;;;;;;6.30;3.47;;;16.30;99.90;;;;;;5037225;28;20068;-77
2022/04/25 10:54:05;;;;;;;7.05;3.40;;;16.30;99.90;;;;;;5038400;28;20045;-75
2022/04/25 10:56:31;;;;;;;8.48;3.58;;;16.20;99.90;;;;;;5038241;28;20040;-76
2022/04/25 10:59:29;;;;;;;4.90;2.83;;;16.40;99.90;;;;;;5040187;28;20029;-77
2022/04/25 11:01:58;;;;;;;6.07;3.47;;;16.50;99.90;;;;;;5028056;28;20029;-76
2022/04/25 11:04:25;;;;;;;7.20;3.33;;;16.50;99.90;;;;;;5038225;28;20021;-77
2022/04/25 11:07:20;;;;;;;8.02;3.10;;;16.50;99.90;;;;;;5038533;28;20481;-76
2022/04/25 11:09:45;;;;;;;7.13;3.80;;;16.70;99.90;;;;;;5037249;28;20026;-75
2022/04/25 11:12:11;;;;;;;6.55;3.33;;;16.80;99.90;;;;;;5039435;28;20041;-75
2022/04/25 11:14:36;;;;;;;5.28;2.42;;;16.80;99.90;;;;;;5038500;28;20024;-76
2022/04/25 11:17:11;;;;;;;11.13;3.50;;;16.90;99.90;;;;;;5037778;28;20328;-75
2022/04/25 11:19:45;;;;;;;6.25;3.00;;;17.10;99.90;;;;;;5038309;28;20397;-76
2022/04/25 11:22:36;;;;;;;5.80;2.58;;;17.20;99.90;;;;;;5039148;28;20030;-77
2022/04/25 11:25:26;;;;;;;5.28;2.88;;;17.20;99.60;;;;;;5039730;28;20025;-77
2022/04/25 11:28:12;;;;;;;5.55;3.22;;;17.10;98.60;;;;;;5042168;28;20029;-77
2022/04/25 11:30:39;;;;;;;6.63;2.97;;;17.20;98.10;;;;;;5046158;28;20205;-77
2022/04/25 11:33:09;;;;;;;7.05;2.92;;;17.10;97.90;;;;;;5044251;28;20478;-77
2022/04/25 11:35:36;;;;;;;11.05;3.17;;;17.10;97.90;;;;;;5050053;28;20021;-77
2022/04/25 11:38:02;;;;;;;7.10;2.50;;;17.10;98.10;;;;;;5047750;28;20030;-79
2022/04/25 11:40:28;;;;;;;8.05;3.22;;;17.20;97.80;;;;;;5044968;28;20093;-77
2022/04/25 11:42:54;;;;;;;6.20;3.13;;;17.20;97.70;;;;;;5047715;28;20056;-77
2022/04/25 11:45:20;;;;;;;6.32;2.75;;;17.30;97.50;;;;;;5052172;28;20024;-77
2022/04/25 11:47:46;;;;;;;7.38;2.50;;;17.30;97.30;;;;;;5050935;28;20043;-77
2022/04/25 11:50:12;;;;;;;10.63;2.90;;;17.30;97.00;;;;;;5050125;28;20114;-77
2022/04/25 11:52:49;;;;;;;4.35;2.58;;;17.30;95.80;;;;;;5050131;28;20041;-77
2022/04/25 11:55:32;;;;;;;6.32;2.47;;;17.40;96.00;;;;;;5048693;28;20025;-76
2022/04/25 11:57:57;;;;;;;10.70;2.85;;;17.50;95.30;;;;;;5047197;28;20041;-77
2022/04/25 12:00:23;;;;;;;4.15;2.78;;;17.50;95.50;;;;;;5043196;28;20072;-77
2022/04/25 12:02:49;;;;;;;6.25;2.63;;;17.70;95.20;;;;;;5039606;28;20029;-76
2022/04/25 12:05:29;;;;;;;8.52;3.70;;;17.80;94.30;;;;;;5038153;28;20036;-77
2022/04/25 12:16:09;;;;;;;8.90;2.70;;;18.60;92.40;;;;;;5037968;28;20032;-77
2022/04/25 12:18:34;;;;;;;6.05;2.67;;;18.90;91.30;;;;;;5037801;28;20026;-77
2022/04/25 12:21:03;;;;;;;3.08;2.13;;;19.20;90.30;;;;;;5037308;28;20029;-76
2022/04/25 12:23:31;;;;;;;6.47;2.22;;;19.80;86.50;;;;;;5037221;28;20120;-77
2022/04/25 12:25:58;;;;;;;6.70;2.55;;;19.80;87.20;;;;;;5037654;28;20026;-77
2022/04/25 12:28:26;;;;;;;5.07;3.00;;;20.30;86.10;;;;;;5036878;28;20467;-77
2022/04/25 12:31:11;;;;;;;4.35;2.47;;;21.00;83.20;;;;;;5038172;28;20103;-77
2022/04/25 12:33:36;;;;;;;6.25;2.72;;;21.20;80.20;;;;;;5038733;28;20025;-75
2022/04/25 12:36:16;;;;;;;4.57;2.78;;;21.70;78.40;;;;;;5040385;28;20026;-75
2022/04/25 12:38:59;;;;;;;7.47;2.50;;;22.60;72.80;;;;;;5038056;28;20033;-77
2022/04/25 12:41:36;;;;;;;4.78;2.53;;;22.60;73.10;;;;;;5035824;28;20091;-78
2022/04/25 12:44:11;;;;;;;7.10;3.15;;;23.10;69.90;;;;;;5043729;28;20045;-77
2022/04/25 12:46:41;;;;;;;5.75;2.70;;;23.80;66.70;;;;;;5041191;28;20029;-77
2022/04/25 12:49:22;;;;;;;10.38;2.95;;;23.90;64.20;;;;;;5037099;28;20056;-77
2022/04/25 12:51:51;;;;;;;6.68;2.67;;;23.50;62.60;;;;;;5036236;28;20188;-76
2022/04/25 12:54:23;;;;;;;4.28;2.50;;;23.50;61.40;;;;;;5035928;28;20081;-76
2022/04/25 12:57:13;;;;;;;3.90;2.50;;;23.80;59.80;;;;;;5035960;28;20025;-77
2022/04/25 12:59:40;;;;;;;8.85;4.10;;;24.20;59.20;;;;;;5033351;28;20091;-77
2022/04/25 13:02:10;;;;;;;15.23;2.83;;;24.60;57.90;;;;;;5036914;28;20064;-78
2022/04/25 13:04:53;;;;;;;5.05;2.88;;;25.20;57.10;;;;;;5036562;28;20026;-76
2022/04/25 13:07:40;;;;;;;6.43;3.60;;;25.70;55.80;;;;;;5034071;28;20025;-76
2022/04/25 13:10:13;;;;;;;6.78;2.80;;;26.00;54.80;;;;;;5039179;28;20049;-79
2022/04/25 13:12:44;;;;;;;5.28;2.92;;;26.40;53.50;;;;;;5038020;28;20121;-77
2022/04/25 13:15:12;;;;;;;5.32;2.45;;;26.70;51.70;;;;;;5039673;28;20100;-77
2022/04/25 13:17:39;;;;;;;8.23;3.63;;;26.90;50.30;;;;;;5041062;28;20021;-80
2022/04/25 13:20:10;;;;;;;5.88;2.90;;;27.20;49.70;;;;;;5039139;28;20029;-76
2022/04/25 13:22:36;;;;;;;5.68;2.67;;;27.80;48.70;;;;;;5038991;28;20026;-76
2022/04/25 13:25:03;;;;;;;6.50;2.75;;;28.10;46.80;;;;;;5036416;28;20037;-77